createdAt,value
2023-03-12T00:01:24.861Z,11.10
2023-03-12T00:03:52.471Z,9.25
2023-03-12T00:06:19.775Z,9.60
2023-03-12T00:08:47.131Z,9.32
2023-03-12T00:11:15.902Z,9.65
2023-03-12T00:13:43.289Z,9.55
2023-03-12T00:16:15.144Z,9.50
2023-03-12T00:18:42.342Z,10.48
2023-03-12T00:21:09.347Z,10.45
2023-03-12T00:23:36.481Z,9.82
2023-03-12T00:26:07.480Z,12.23
2023-03-12T00:28:35.166Z,10.53
2023-03-12T00:31:13.177Z,10.18
2023-03-12T00:33:40.099Z,11.95
2023-03-12T00:36:07.848Z,12.52
2023-03-12T00:38:34.756Z,13.40
2023-03-12T00:41:01.717Z,11.63
2023-03-12T00:43:28.687Z,12.75
2023-03-12T00:45:55.653Z,13.20
2023-03-12T00:48:22.589Z,12.70
2023-03-12T00:50:49.648Z,14.30
2023-03-12T00:53:16.598Z,14.70
2023-03-12T00:55:43.512Z,14.57
2023-03-12T00:58:10.483Z,14.75
2023-03-12T01:00:37.499Z,15.23
2023-03-12T01:03:04.538Z,15.52
2023-03-12T01:05:34.084Z,14.27
2023-03-12T01:08:02.081Z,15.00
2023-03-12T01:10:29.035Z,17.45
2023-03-12T01:12:55.961Z,18.08
2023-03-12T01:15:23.574Z,17.85
2023-03-12T01:17:51.236Z,21.08
2023-03-12T01:20:18.426Z,19.20
2023-03-12T01:22:45.466Z,18.30
2023-03-12T01:25:12.585Z,18.60
2023-03-12T01:27:39.469Z,19.40
2023-03-12T01:30:07.357Z,17.20
2023-03-12T01:32:34.438Z,17.30
2023-03-12T01:35:01.603Z,20.00
2023-03-12T01:37:28.856Z,16.20
2023-03-12T01:39:55.796Z,23.02
2023-03-12T01:42:22.728Z,16.20
2023-03-12T01:45:31.330Z,18.50
2023-03-12T01:47:58.345Z,19.65
2023-03-12T01:50:25.483Z,14.00
2023-03-12T01:52:52.459Z,18.45
2023-03-12T01:55:19.405Z,16.15
2023-03-12T01:57:55.760Z,17.50
2023-03-12T02:00:25.242Z,21.55
2023-03-12T02:02:56.321Z,15.23
2023-03-12T02:05:30.828Z,15.43
2023-03-12T02:07:58.063Z,17.63
2023-03-12T02:10:25.153Z,17.30
2023-03-12T02:12:52.714Z,17.25
2023-03-12T02:15:19.677Z,18.58
2023-03-12T02:17:46.586Z,16.75
2023-03-12T02:20:21.275Z,20.55
2023-03-12T02:22:51.844Z,13.88
2023-03-12T02:25:21.649Z,19.13
2023-03-12T02:27:48.757Z,18.17
2023-03-12T02:30:16.166Z,18.30
2023-03-12T02:32:43.223Z,16.35
2023-03-12T02:35:10.288Z,21.67
2023-03-12T02:37:46.773Z,18.58
2023-03-12T02:40:15.986Z,15.75
2023-03-12T02:42:42.901Z,14.63
2023-03-12T02:45:10.111Z,18.67
2023-03-12T02:47:37.101Z,19.33
2023-03-12T02:50:04.758Z,18.15
2023-03-12T02:52:35.621Z,17.63
2023-03-12T02:55:02.686Z,17.43
2023-03-12T02:57:29.688Z,16.13
2023-03-12T02:59:56.874Z,17.42
2023-03-12T03:02:24.445Z,16.17
2023-03-12T03:04:51.415Z,17.42
2023-03-12T03:07:18.494Z,19.33
2023-03-12T03:09:45.551Z,16.60
2023-03-12T03:12:12.531Z,16.42
2023-03-12T03:14:40.669Z,15.70
2023-03-12T03:17:07.786Z,19.67
2023-03-12T03:19:34.818Z,18.95
2023-03-12T03:22:01.777Z,16.52
2023-03-12T03:24:30.208Z,19.33
2023-03-12T03:26:57.451Z,17.75
2023-03-12T03:29:24.949Z,17.85
2023-03-12T03:31:52.049Z,20.52
2023-03-12T03:34:19.157Z,18.92
2023-03-12T03:36:46.248Z,22.05
2023-03-12T03:39:15.495Z,19.15
2023-03-12T03:41:42.977Z,19.92
2023-03-12T03:44:10.249Z,18.00
2023-03-12T03:46:38.472Z,18.20
2023-03-12T03:49:08.379Z,18.00
2023-03-12T03:51:40.117Z,16.67
2023-03-12T03:54:10.296Z,21.10
2023-03-12T03:56:37.506Z,17.40
2023-03-12T03:59:05.635Z,21.88
2023-03-12T04:01:34.832Z,15.85
2023-03-12T04:04:02.494Z,18.80
2023-03-12T04:06:31.265Z,22.45
2023-03-12T04:08:58.535Z,24.00
2023-03-12T04:11:26.507Z,17.80
2023-03-12T04:13:54.847Z,20.65
2023-03-12T04:16:24.867Z,19.42
2023-03-12T04:18:53.509Z,21.33
2023-03-12T04:21:21.185Z,23.05
2023-03-12T04:23:49.717Z,25.10
2023-03-12T04:26:18.678Z,20.95
2023-03-12T04:28:45.573Z,23.08
2023-03-12T04:31:15.595Z,30.77
2023-03-12T04:33:49.078Z,26.92
2023-03-12T04:36:16.848Z,20.85
2023-03-12T04:38:46.443Z,24.15
2023-03-12T04:41:15.936Z,26.05
2023-03-12T04:43:53.961Z,25.55
2023-03-12T04:46:22.073Z,26.38
2023-03-12T04:48:49.056Z,26.65
2023-03-12T04:51:16.258Z,33.40
2023-03-12T04:53:43.543Z,28.27
2023-03-12T04:56:11.952Z,29.67
2023-03-12T04:58:39.320Z,26.00
2023-03-12T05:01:06.779Z,31.90
2023-03-12T05:03:33.899Z,29.42
2023-03-12T05:06:01.379Z,31.35
2023-03-12T05:08:28.440Z,24.02
2023-03-12T05:10:55.482Z,25.55
2023-03-12T05:13:22.826Z,27.27
2023-03-12T05:15:53.201Z,30.85
2023-03-12T05:18:21.634Z,29.98
2023-03-12T05:21:05.175Z,32.85
2023-03-12T05:23:32.328Z,31.10
2023-03-12T05:25:59.374Z,27.35
2023-03-12T05:28:28.577Z,26.33
2023-03-12T05:30:58.871Z,33.50
2023-03-12T05:33:26.504Z,36.00
2023-03-12T05:35:53.996Z,35.58
2023-03-12T05:38:21.120Z,30.55
2023-03-12T05:40:53.387Z,28.23
2023-03-12T05:43:21.233Z,30.23
2023-03-12T05:45:48.575Z,32.72
2023-03-12T05:48:15.707Z,29.65
2023-03-12T05:50:42.861Z,32.55
2023-03-12T05:53:09.885Z,26.90
2023-03-12T05:55:38.279Z,28.35
2023-03-12T05:58:06.270Z,29.88
2023-03-12T06:00:35.783Z,30.85
2023-03-12T06:03:02.940Z,32.33
2023-03-12T06:05:31.182Z,34.28
2023-03-12T06:07:58.379Z,29.35
2023-03-12T06:10:25.382Z,33.03
2023-03-12T06:12:52.306Z,30.95
2023-03-12T06:15:19.267Z,28.05
2023-03-12T06:17:46.270Z,34.50
2023-03-12T06:20:13.327Z,27.40
2023-03-12T06:22:40.624Z,30.35
2023-03-12T06:25:07.960Z,30.42
2023-03-12T06:27:35.468Z,30.55
2023-03-12T06:30:03.517Z,27.10
2023-03-12T06:32:30.488Z,24.60
2023-03-12T06:34:57.596Z,30.27
2023-03-12T06:37:24.551Z,27.60
2023-03-12T06:39:52.292Z,30.50
2023-03-12T06:42:20.814Z,29.70
2023-03-12T06:44:47.826Z,36.35
2023-03-12T06:47:17.449Z,28.35
2023-03-12T06:49:44.714Z,27.33
2023-03-12T06:52:11.671Z,34.30
2023-03-12T06:54:38.689Z,31.02
2023-03-12T06:57:05.630Z,27.90
2023-03-12T06:59:32.582Z,30.67
2023-03-12T07:01:59.578Z,29.05
2023-03-12T07:04:26.666Z,29.90
2023-03-12T07:06:53.907Z,35.47
2023-03-12T07:09:20.911Z,30.02
2023-03-12T07:11:47.849Z,30.60
2023-03-12T07:14:14.759Z,30.67
2023-03-12T07:16:41.691Z,21.33
2023-03-12T07:19:08.634Z,24.02
2023-03-12T07:21:35.541Z,26.80
2023-03-12T07:24:06.877Z,30.27
2023-03-12T07:26:35.479Z,22.73
2023-03-12T07:29:03.729Z,26.63
2023-03-12T07:31:30.788Z,29.85
2023-03-12T07:33:57.923Z,26.60
2023-03-12T07:36:25.190Z,27.70
2023-03-12T07:38:52.393Z,21.33
2023-03-12T07:41:19.408Z,23.15
2023-03-12T07:43:47.228Z,24.23
2023-03-12T07:46:14.332Z,26.27
2023-03-12T07:48:44.118Z,31.90
2023-03-12T07:51:11.338Z,17.08
2023-03-12T07:53:38.654Z,20.50
2023-03-12T07:56:06.041Z,21.77
2023-03-12T07:58:35.891Z,18.50
2023-03-12T08:01:03.196Z,14.55
2023-03-12T08:03:33.519Z,14.90
2023-03-12T08:06:02.264Z,18.25
2023-03-12T08:08:29.574Z,17.23
2023-03-12T08:10:56.807Z,17.95
2023-03-12T08:13:24.490Z,14.52
2023-03-12T08:15:52.880Z,21.63
2023-03-12T08:18:20.199Z,16.10
2023-03-12T08:20:54.058Z,16.02
2023-03-12T08:23:21.176Z,14.70
2023-03-12T08:25:49.171Z,17.70
2023-03-12T08:28:16.876Z,22.30
2023-03-12T08:30:48.341Z,16.63
2023-03-12T08:33:15.328Z,21.38
2023-03-12T08:35:42.355Z,20.90
2023-03-12T08:38:09.346Z,21.23
2023-03-12T08:40:36.473Z,18.08
2023-03-12T08:43:03.500Z,22.15
2023-03-12T08:45:30.804Z,16.15
2023-03-12T08:47:57.880Z,17.73
2023-03-12T08:50:26.451Z,17.20
2023-03-12T08:52:53.371Z,19.80
2023-03-12T08:55:20.300Z,17.13
2023-03-12T08:57:47.278Z,18.70
2023-03-12T09:00:16.285Z,17.55
2023-03-12T09:02:45.040Z,18.40
2023-03-12T09:05:12.081Z,16.67
2023-03-12T09:07:39.017Z,17.83
2023-03-12T09:10:06.400Z,18.88
2023-03-12T09:12:33.494Z,20.42
2023-03-12T09:15:04.954Z,19.00
2023-03-12T09:20:00.168Z,23.48
2023-03-12T09:22:28.658Z,21.15
2023-03-12T09:24:55.534Z,20.52
2023-03-12T09:27:22.510Z,22.85
2023-03-12T09:30:00.234Z,22.60
2023-03-12T09:32:28.617Z,22.27
2023-03-12T09:34:55.632Z,24.52
2023-03-12T09:37:24.265Z,17.65
2023-03-12T09:39:52.216Z,22.45
2023-03-12T09:42:46.952Z,26.00
2023-03-12T09:45:25.422Z,19.13
2023-03-12T09:47:54.280Z,22.23
2023-03-12T09:50:28.744Z,19.23
2023-03-12T09:53:02.334Z,24.98
2023-03-12T09:55:35.605Z,21.23
2023-03-12T09:58:02.743Z,23.23
2023-03-12T10:00:34.646Z,20.40
2023-03-12T10:03:21.138Z,22.58
2023-03-12T10:06:06.923Z,25.00
2023-03-12T10:08:55.786Z,28.65
2023-03-12T10:11:25.808Z,22.70
2023-03-12T10:14:01.742Z,21.73
2023-03-12T10:16:59.262Z,24.25
2023-03-12T10:20:00.030Z,22.10
2023-03-12T10:22:48.266Z,23.98
2023-03-12T10:25:39.914Z,24.67
2023-03-12T10:28:44.148Z,19.67
2023-03-12T10:31:24.389Z,21.45
2023-03-12T10:34:01.731Z,17.98
2023-03-12T10:36:37.999Z,23.92
2023-03-12T10:39:05.811Z,22.15
2023-03-12T10:41:34.893Z,24.80
2023-03-12T10:44:06.274Z,22.38
2023-03-12T10:46:59.930Z,24.48
2023-03-12T10:49:29.543Z,21.30
2023-03-12T10:52:03.975Z,21.63
2023-03-12T10:54:38.554Z,19.55
2023-03-12T10:57:05.728Z,20.33
2023-03-12T10:59:35.107Z,21.45
2023-03-12T11:02:02.597Z,19.30
2023-03-12T11:04:32.813Z,20.45
2023-03-12T11:07:15.121Z,17.10
2023-03-12T11:09:42.282Z,18.33
2023-03-12T11:12:30.820Z,20.05
2023-03-12T11:14:58.198Z,21.80
2023-03-12T11:17:29.406Z,23.05
2023-03-12T11:19:56.435Z,21.30
2023-03-12T11:22:34.180Z,21.23
2023-03-12T11:25:04.154Z,19.65
2023-03-12T11:27:42.268Z,22.58
2023-03-12T11:30:12.871Z,20.70
2023-03-12T11:32:47.496Z,21.35
2023-03-12T11:35:16.199Z,21.35
2023-03-12T11:38:19.243Z,22.90
2023-03-12T11:40:55.154Z,16.77
2023-03-12T11:43:44.361Z,16.05
2023-03-12T11:46:19.040Z,18.50
2023-03-12T11:49:01.401Z,20.73
2023-03-12T11:51:43.453Z,19.73
2023-03-12T11:54:18.194Z,19.30
2023-03-12T11:56:45.735Z,24.90
2023-03-12T11:59:31.260Z,20.65
2023-03-12T12:02:30.742Z,19.73
2023-03-12T12:05:00.732Z,18.70
2023-03-12T12:07:43.559Z,18.77
2023-03-12T12:10:33.555Z,18.50
2023-03-12T12:13:30.748Z,18.80
2023-03-12T12:16:01.011Z,19.98
2023-03-12T12:18:38.360Z,18.17
2023-03-12T12:21:26.349Z,20.08
2023-03-12T12:24:05.142Z,20.38
2023-03-12T12:26:43.885Z,18.90
2023-03-12T12:29:44.656Z,21.35
2023-03-12T12:32:26.983Z,22.48
2023-03-12T12:34:57.077Z,20.08
2023-03-12T12:37:43.037Z,16.90
2023-03-12T12:40:12.801Z,16.27
2023-03-12T12:42:57.203Z,20.17
2023-03-12T12:45:24.283Z,19.17
2023-03-12T12:47:55.141Z,20.42
2023-03-12T12:50:24.809Z,21.67
2023-03-12T12:53:06.030Z,16.88
2023-03-12T12:55:46.885Z,23.15
2023-03-12T12:58:40.569Z,21.38
2023-03-12T13:01:08.177Z,20.95
2023-03-12T13:03:35.188Z,21.77
2023-03-12T13:06:03.935Z,18.83
2023-03-12T13:08:43.335Z,20.63
2023-03-12T13:11:20.392Z,19.80
2023-03-12T13:13:52.542Z,21.42
2023-03-12T13:19:15.941Z,20.50
2023-03-12T13:21:54.352Z,24.13
2023-03-12T13:24:45.778Z,21.60
2023-03-12T13:27:25.972Z,21.52
2023-03-12T13:29:57.282Z,20.88
2023-03-12T13:32:36.567Z,17.45
2023-03-12T13:35:15.838Z,19.02
2023-03-12T13:37:51.824Z,18.27
2023-03-12T13:40:30.812Z,19.98
2023-03-12T13:43:14.317Z,17.50
2023-03-12T13:46:02.322Z,15.25
2023-03-12T13:48:29.296Z,18.50
2023-03-12T13:50:58.933Z,15.52
2023-03-12T13:53:47.177Z,18.60
2023-03-12T13:56:16.920Z,13.15
2023-03-12T13:58:57.127Z,17.10
2023-03-12T14:01:27.617Z,11.77
2023-03-12T14:03:56.947Z,11.02
2023-03-12T14:06:24.750Z,11.07
2023-03-12T14:09:33.586Z,10.40
2023-03-12T14:12:15.910Z,11.73
2023-03-12T14:14:55.237Z,11.75
2023-03-12T14:17:27.419Z,10.57
2023-03-12T14:20:00.632Z,8.63
2023-03-12T14:22:34.192Z,11.25
2023-03-12T14:25:05.390Z,11.32
2023-03-12T14:27:33.390Z,13.25
2023-03-12T14:30:23.881Z,11.70
2023-03-12T14:32:53.845Z,13.82
2023-03-12T14:35:33.575Z,13.50
2023-03-12T14:38:06.919Z,12.15
2023-03-12T14:40:44.654Z,14.07
2023-03-12T14:43:31.131Z,14.32
2023-03-12T14:46:00.100Z,14.25
2023-03-12T14:48:30.902Z,15.43
2023-03-12T14:50:58.234Z,14.80
2023-03-12T14:53:28.307Z,14.68
2023-03-12T14:56:08.676Z,13.55
2023-03-12T14:58:36.813Z,15.00
2023-03-12T15:01:05.924Z,17.20
2023-03-12T15:03:37.193Z,16.58
2023-03-12T15:06:04.428Z,17.13
2023-03-12T15:08:32.304Z,17.05
2023-03-12T15:10:59.360Z,15.18
2023-03-12T15:13:26.779Z,17.50
2023-03-12T15:15:54.469Z,19.00
2023-03-12T15:18:26.811Z,19.95
2023-03-12T15:20:53.896Z,16.30
2023-03-12T15:23:21.882Z,16.15
2023-03-12T15:25:49.074Z,16.13
2023-03-12T15:28:16.116Z,12.73
2023-03-12T15:30:43.504Z,16.08
2023-03-12T15:33:16.731Z,14.00
2023-03-12T15:35:59.194Z,9.65
2023-03-12T15:38:26.863Z,7.78
2023-03-12T15:40:56.217Z,12.38
2023-03-12T15:43:24.101Z,10.02
2023-03-12T15:46:01.674Z,8.02
2023-03-12T15:48:36.865Z,14.10
2023-03-12T15:51:04.434Z,8.25
2023-03-12T15:53:33.783Z,7.60
2023-03-12T15:56:05.111Z,12.55
2023-03-12T15:58:34.976Z,8.18
2023-03-12T16:01:16.055Z,12.00
2023-03-12T16:03:45.527Z,8.10
2023-03-12T16:06:14.222Z,10.63
2023-03-12T16:08:45.030Z,12.68
2023-03-12T16:11:19.948Z,9.40
2023-03-12T16:13:47.581Z,11.43
2023-03-12T16:16:14.652Z,7.82
2023-03-12T16:18:42.317Z,10.48
2023-03-12T16:21:09.539Z,9.25
2023-03-12T16:23:37.445Z,7.72
2023-03-12T16:26:04.995Z,8.45
2023-03-12T16:28:32.176Z,9.52
2023-03-12T16:30:59.136Z,10.80
2023-03-12T16:33:26.056Z,8.88
2023-03-12T16:35:53.233Z,8.45
2023-03-12T16:38:20.280Z,10.60
2023-03-12T16:40:48.480Z,10.30
2023-03-12T16:43:20.275Z,9.20
2023-03-12T16:45:47.514Z,11.27
2023-03-12T16:48:18.737Z,9.25
2023-03-12T16:50:55.917Z,12.82
2023-03-12T16:53:23.651Z,10.32
2023-03-12T16:55:50.655Z,8.88
2023-03-12T16:58:18.719Z,15.43
2023-03-12T17:00:45.860Z,12.07
2023-03-12T17:03:26.690Z,10.88
2023-03-12T17:05:53.785Z,12.35
2023-03-12T17:08:20.686Z,13.68
2023-03-12T17:10:47.610Z,10.77
2023-03-12T17:13:23.972Z,14.25
2023-03-12T17:15:51.018Z,13.60
2023-03-12T17:18:18.786Z,11.65
2023-03-12T17:20:46.328Z,14.50
2023-03-12T17:23:14.433Z,13.13
2023-03-12T17:25:42.637Z,14.75
2023-03-12T17:28:09.778Z,12.98
2023-03-12T17:30:37.157Z,13.65
2023-03-12T17:33:06.346Z,11.20
2023-03-12T17:35:33.997Z,12.23
2023-03-12T17:38:01.175Z,12.73
2023-03-12T17:40:28.228Z,11.27
2023-03-12T17:42:55.292Z,15.30
2023-03-12T17:45:22.441Z,15.20
2023-03-12T17:47:49.704Z,14.20
2023-03-12T17:50:17.339Z,15.98
2023-03-12T17:52:44.426Z,11.68
2023-03-12T17:55:11.935Z,17.83
2023-03-12T17:57:39.558Z,16.00
2023-03-12T18:00:11.867Z,20.95
2023-03-12T18:02:41.841Z,15.40
2023-03-12T18:05:12.083Z,18.90
2023-03-12T18:07:42.346Z,18.20
2023-03-12T18:10:11.135Z,22.98
2023-03-12T18:12:39.118Z,18.17
2023-03-12T18:15:11.238Z,20.17
2023-03-12T18:17:38.672Z,22.20
2023-03-12T18:20:09.691Z,22.13
2023-03-12T18:22:38.123Z,21.30
2023-03-12T18:25:06.014Z,23.40
2023-03-12T18:27:32.952Z,20.40
2023-03-12T18:29:59.929Z,24.20
2023-03-12T18:32:26.912Z,19.80
2023-03-12T18:34:53.965Z,24.52
2023-03-12T18:37:21.064Z,21.30
2023-03-12T18:39:48.203Z,23.90
2023-03-12T18:42:15.256Z,20.92
2023-03-12T18:44:43.269Z,21.52
2023-03-12T18:47:10.294Z,20.65
2023-03-12T18:49:37.393Z,23.02
2023-03-12T18:52:04.449Z,22.38
2023-03-12T18:54:33.652Z,24.13
2023-03-12T18:57:01.085Z,19.77
2023-03-12T18:59:30.281Z,21.98
2023-03-12T19:01:58.109Z,21.40
2023-03-12T19:04:25.976Z,19.70
2023-03-12T19:06:53.025Z,19.63
2023-03-12T19:09:20.058Z,20.63
2023-03-12T19:11:48.071Z,24.10
2023-03-12T19:14:15.183Z,26.67
2023-03-12T19:16:48.762Z,22.88
2023-03-12T19:19:17.101Z,24.20
2023-03-12T19:21:44.215Z,20.98
2023-03-12T19:24:11.313Z,21.17
2023-03-12T19:26:38.322Z,19.52
2023-03-12T19:29:05.296Z,18.05
2023-03-12T19:31:32.377Z,15.65
2023-03-12T19:33:59.363Z,19.77
2023-03-12T19:36:26.326Z,14.18
2023-03-12T19:38:53.286Z,14.73
2023-03-12T19:41:20.214Z,16.17
2023-03-12T19:43:47.179Z,17.33
2023-03-12T19:46:14.190Z,18.15
2023-03-12T19:48:41.223Z,16.50
2023-03-12T19:51:09.169Z,18.45
2023-03-12T19:53:36.450Z,15.80
2023-03-12T19:56:03.989Z,14.07
2023-03-12T19:58:31.092Z,15.35
2023-03-12T20:01:01.608Z,12.65
2023-03-12T20:03:29.042Z,16.25
2023-03-12T20:05:56.535Z,13.65
2023-03-12T20:08:26.166Z,14.52
2023-03-12T20:10:53.258Z,12.05
2023-03-12T20:13:20.336Z,9.75
2023-03-12T20:15:48.655Z,10.70
2023-03-12T20:18:16.029Z,10.85
2023-03-12T20:20:43.259Z,8.38
2023-03-12T20:23:10.240Z,9.40
2023-03-12T20:25:41.102Z,9.40
2023-03-12T20:28:08.791Z,8.43
2023-03-12T20:30:37.040Z,8.13
2023-03-12T20:33:05.867Z,7.13
2023-03-12T20:35:33.074Z,6.60
2023-03-12T20:38:00.449Z,6.07
2023-03-12T20:40:27.709Z,8.60
2023-03-12T20:42:54.717Z,7.07
2023-03-12T20:45:21.709Z,6.78
2023-03-12T20:47:48.847Z,5.65
2023-03-12T20:50:16.274Z,5.50
2023-03-12T20:52:44.497Z,6.07
2023-03-12T20:55:11.508Z,6.43
2023-03-12T20:57:38.654Z,4.72
2023-03-12T21:00:06.266Z,5.70
2023-03-12T21:02:33.335Z,3.95
2023-03-12T21:05:00.989Z,4.40
2023-03-12T21:07:28.100Z,4.50
2023-03-12T21:09:55.266Z,4.60
2023-03-12T21:12:22.251Z,3.72
2023-03-12T21:14:49.221Z,4.18
2023-03-12T21:17:16.292Z,5.60
2023-03-12T21:19:43.368Z,5.05
2023-03-12T21:22:10.532Z,6.05
2023-03-12T21:24:37.807Z,4.40
2023-03-12T21:27:04.780Z,4.25
2023-03-12T21:29:31.912Z,4.38
2023-03-12T21:31:58.980Z,4.32
2023-03-12T21:34:26.014Z,5.22
2023-03-12T21:36:52.950Z,2.88
2023-03-12T21:39:19.982Z,3.85
2023-03-12T21:41:47.009Z,4.45
2023-03-12T21:44:16.390Z,3.88
2023-03-12T21:46:43.741Z,4.20
2023-03-12T21:49:10.938Z,5.00
2023-03-12T21:51:39.523Z,3.63
2023-03-12T21:54:06.738Z,4.38
2023-03-12T21:56:33.732Z,4.25
2023-03-12T21:59:00.750Z,5.00
2023-03-12T22:01:28.253Z,4.97
2023-03-12T22:03:55.475Z,5.07
2023-03-12T22:06:22.568Z,5.68
2023-03-12T22:08:49.580Z,5.65
2023-03-12T22:11:16.945Z,5.88
2023-03-12T22:13:44.024Z,5.55
2023-03-12T22:16:12.059Z,5.30
2023-03-12T22:18:40.180Z,5.45
2023-03-12T22:21:10.266Z,6.22
2023-03-12T22:23:37.501Z,6.88
2023-03-12T22:26:05.374Z,4.95
2023-03-12T22:28:32.674Z,4.95
2023-03-12T22:31:00.472Z,6.00
2023-03-12T22:33:27.891Z,5.55
2023-03-12T22:35:55.294Z,4.82
2023-03-12T22:38:23.264Z,4.82
2023-03-12T22:40:50.206Z,5.28
2023-03-12T22:43:17.484Z,6.22
2023-03-12T22:45:44.500Z,5.75
2023-03-12T22:48:11.654Z,4.60
2023-03-12T22:50:38.670Z,4.55
2023-03-12T22:53:05.673Z,4.45
2023-03-12T22:55:32.594Z,4.45
2023-03-12T22:57:59.672Z,6.15
2023-03-12T23:00:26.777Z,5.53
2023-03-12T23:02:53.811Z,5.22
2023-03-12T23:05:20.798Z,4.45
2023-03-12T23:07:47.851Z,4.60
2023-03-12T23:10:14.770Z,4.20
2023-03-12T23:12:41.710Z,4.15
2023-03-12T23:15:09.119Z,5.10
2023-03-12T23:17:36.078Z,4.72
2023-03-12T23:20:03.840Z,4.72
2023-03-12T23:22:30.950Z,5.00
2023-03-12T23:24:57.928Z,5.32
2023-03-12T23:27:24.945Z,4.30
2023-03-12T23:29:51.897Z,6.22
2023-03-12T23:32:18.953Z,7.07
2023-03-12T23:34:45.996Z,6.00
2023-03-12T23:37:14.409Z,6.30
2023-03-12T23:39:53.662Z,7.50
2023-03-12T23:42:21.240Z,6.70
2023-03-12T23:44:48.180Z,9.48
2023-03-12T23:47:15.126Z,9.23
2023-03-12T23:49:42.086Z,11.00
2023-03-12T23:52:09.097Z,10.50
2023-03-12T23:54:36.086Z,9.98
2023-03-12T23:57:03.213Z,13.30
2023-03-12T23:59:30.196Z,9.80
